Terminal Aerodrome Forecast
Issued by NWS

Home | Current Version | Previous Version | Text Only | Print | Product List | Glossary On
Versions: 1 2 3 4 5 6 7 8 9 10 11 12 13 14 15 16 17 18 19 20 21 22 23 24 25 26 27 28 29 30 31 32 33 34 35 36 37 38 39 40 41 42
000
FTUS43 KGRB 222300 RRA
TAFRHI
TAF
KRHI 222341Z 2300/2324 11009KT 5SM BR OVC006
      TEMPO 2302/2304 2SM -SN
     FM230400 08008KT 2SM -SN BR OVC005
     FM231000 07008KT 1 1/2SM -SN BR OVC003
     FM232000 06007KT 1 1/2SM -FZDZSN BR OVC002=

USA.gov is the U.S. government's official web portal to all federal, state and local government web resources and services.